sensor_id;sensor_type;location;lat;lon;timestamp;P1;durP1;ratioP1;P2;durP2;ratioP2
71423;SDS011;59240;51.370;-0.486;2023-05-14T00:01:23;19.25;;;9.68;;
71423;SDS011;59240;51.370;-0.486;2023-05-14T00:03:50;19.87;;;9.83;;
71423;SDS011;59240;51.370;-0.486;2023-05-14T00:06:17;20.05;;;9.68;;
71423;SDS011;59240;51.370;-0.486;2023-05-14T00:08:43;18.70;;;9.65;;
71423;SDS011;59240;51.370;-0.486;2023-05-14T00:11:10;19.17;;;10.23;;
71423;SDS011;59240;51.370;-0.486;2023-05-14T00:13:37;19.50;;;9.68;;
71423;SDS011;59240;51.370;-0.486;2023-05-14T00:16:03;24.03;;;11.23;;
71423;SDS011;59240;51.370;-0.486;2023-05-14T00:18:30;22.55;;;10.38;;
71423;SDS011;59240;51.370;-0.486;2023-05-14T00:20:57;19.65;;;9.52;;
71423;SDS011;59240;51.370;-0.486;2023-05-14T00:23:23;18.10;;;9.50;;
71423;SDS011;59240;51.370;-0.486;2023-05-14T00:25:50;18.35;;;9.10;;
71423;SDS011;59240;51.370;-0.486;2023-05-14T00:28:17;18.37;;;9.47;;
71423;SDS011;59240;51.370;-0.486;2023-05-14T00:30:43;21.00;;;9.90;;
71423;SDS011;59240;51.370;-0.486;2023-05-14T00:33:10;19.13;;;10.05;;
71423;SDS011;59240;51.370;-0.486;2023-05-14T00:35:36;19.77;;;9.25;;
71423;SDS011;59240;51.370;-0.486;2023-05-14T00:38:03;20.13;;;10.07;;
71423;SDS011;59240;51.370;-0.486;2023-05-14T00:40:30;21.57;;;10.17;;
71423;SDS011;59240;51.370;-0.486;2023-05-14T00:42:56;20.58;;;9.98;;
71423;SDS011;59240;51.370;-0.486;2023-05-14T00:45:23;17.50;;;8.77;;
71423;SDS011;59240;51.370;-0.486;2023-05-14T00:47:50;21.27;;;9.93;;
71423;SDS011;59240;51.370;-0.486;2023-05-14T00:50:18;17.90;;;9.05;;
71423;SDS011;59240;51.370;-0.486;2023-05-14T00:52:46;21.13;;;9.73;;
71423;SDS011;59240;51.370;-0.486;2023-05-14T00:55:13;19.35;;;10.05;;
71423;SDS011;59240;51.370;-0.486;2023-05-14T00:57:42;19.52;;;9.48;;
71423;SDS011;59240;51.370;-0.486;2023-05-14T01:00:09;18.95;;;9.95;;
71423;SDS011;59240;51.370;-0.486;2023-05-14T01:02:36;18.15;;;10.10;;
71423;SDS011;59240;51.370;-0.486;2023-05-14T01:05:02;18.57;;;10.13;;
71423;SDS011;59240;51.370;-0.486;2023-05-14T01:10:28;20.75;;;9.98;;
71423;SDS011;59240;51.370;-0.486;2023-05-14T01:13:07;20.30;;;9.95;;
71423;SDS011;59240;51.370;-0.486;2023-05-14T01:15:39;20.17;;;9.45;;
71423;SDS011;59240;51.370;-0.486;2023-05-14T01:18:09;22.00;;;9.63;;
71423;SDS011;59240;51.370;-0.486;2023-05-14T01:20:38;21.38;;;10.23;;
71423;SDS011;59240;51.370;-0.486;2023-05-14T01:23:05;21.13;;;10.23;;
71423;SDS011;59240;51.370;-0.486;2023-05-14T01:25:32;22.00;;;10.27;;
71423;SDS011;59240;51.370;-0.486;2023-05-14T01:30:35;19.00;;;10.03;;
71423;SDS011;59240;51.370;-0.486;2023-05-14T01:33:16;18.00;;;9.50;;
71423;SDS011;59240;51.370;-0.486;2023-05-14T01:35:44;21.88;;;10.15;;
71423;SDS011;59240;51.370;-0.486;2023-05-14T01:38:12;21.50;;;10.25;;
71423;SDS011;59240;51.370;-0.486;2023-05-14T01:40:43;20.33;;;9.88;;
71423;SDS011;59240;51.370;-0.486;2023-05-14T01:43:11;20.13;;;10.23;;
71423;SDS011;59240;51.370;-0.486;2023-05-14T01:45:38;22.15;;;10.30;;
71423;SDS011;59240;51.370;-0.486;2023-05-14T01:48:05;20.95;;;10.18;;
71423;SDS011;59240;51.370;-0.486;2023-05-14T01:50:31;21.45;;;10.48;;
71423;SDS011;59240;51.370;-0.486;2023-05-14T01:52:58;22.95;;;10.80;;
71423;SDS011;59240;51.370;-0.486;2023-05-14T01:55:25;23.23;;;10.93;;
71423;SDS011;59240;51.370;-0.486;2023-05-14T01:57:51;24.05;;;11.32;;
71423;SDS011;59240;51.370;-0.486;2023-05-14T02:00:19;21.13;;;10.82;;
71423;SDS011;59240;51.370;-0.486;2023-05-14T02:02:48;20.30;;;10.63;;
71423;SDS011;59240;51.370;-0.486;2023-05-14T02:05:14;23.58;;;11.90;;
71423;SDS011;59240;51.370;-0.486;2023-05-14T02:07:41;22.33;;;11.77;;
71423;SDS011;59240;51.370;-0.486;2023-05-14T02:10:07;21.20;;;11.40;;
71423;SDS011;59240;51.370;-0.486;2023-05-14T02:12:35;23.33;;;10.73;;
71423;SDS011;59240;51.370;-0.486;2023-05-14T02:15:02;23.80;;;11.80;;
71423;SDS011;59240;51.370;-0.486;2023-05-14T02:17:29;24.02;;;11.05;;
71423;SDS011;59240;51.370;-0.486;2023-05-14T02:19:55;21.90;;;11.20;;
71423;SDS011;59240;51.370;-0.486;2023-05-14T02:22:22;24.05;;;11.07;;
71423;SDS011;59240;51.370;-0.486;2023-05-14T02:24:48;21.98;;;11.45;;
71423;SDS011;59240;51.370;-0.486;2023-05-14T02:27:16;24.75;;;11.13;;
71423;SDS011;59240;51.370;-0.486;2023-05-14T02:29:43;22.88;;;11.20;;
71423;SDS011;59240;51.370;-0.486;2023-05-14T02:32:10;22.23;;;10.30;;
71423;SDS011;59240;51.370;-0.486;2023-05-14T02:34:37;21.73;;;10.43;;
71423;SDS011;59240;51.370;-0.486;2023-05-14T02:37:04;21.90;;;10.50;;
71423;SDS011;59240;51.370;-0.486;2023-05-14T02:39:30;22.05;;;10.93;;
71423;SDS011;59240;51.370;-0.486;2023-05-14T02:41:57;21.90;;;10.77;;
71423;SDS011;59240;51.370;-0.486;2023-05-14T02:44:23;20.20;;;10.43;;
71423;SDS011;59240;51.370;-0.486;2023-05-14T02:46:50;23.38;;;11.27;;
71423;SDS011;59240;51.370;-0.486;2023-05-14T02:49:17;21.83;;;9.90;;
71423;SDS011;59240;51.370;-0.486;2023-05-14T02:51:43;19.58;;;9.00;;
71423;SDS011;59240;51.370;-0.486;2023-05-14T02:54:10;20.00;;;10.20;;
71423;SDS011;59240;51.370;-0.486;2023-05-14T02:56:36;21.60;;;9.67;;
71423;SDS011;59240;51.370;-0.486;2023-05-14T02:59:03;21.17;;;10.02;;
71423;SDS011;59240;51.370;-0.486;2023-05-14T03:01:30;23.88;;;11.10;;
71423;SDS011;59240;51.370;-0.486;2023-05-14T03:03:57;21.80;;;10.15;;
71423;SDS011;59240;51.370;-0.486;2023-05-14T03:06:23;24.02;;;11.35;;
71423;SDS011;59240;51.370;-0.486;2023-05-14T03:08:50;26.40;;;12.77;;
71423;SDS011;59240;51.370;-0.486;2023-05-14T03:11:16;24.35;;;11.00;;
71423;SDS011;59240;51.370;-0.486;2023-05-14T03:13:43;23.35;;;10.80;;
71423;SDS011;59240;51.370;-0.486;2023-05-14T03:16:09;23.15;;;11.13;;
71423;SDS011;59240;51.370;-0.486;2023-05-14T03:18:36;24.63;;;11.70;;
71423;SDS011;59240;51.370;-0.486;2023-05-14T03:21:03;26.60;;;12.03;;
71423;SDS011;59240;51.370;-0.486;2023-05-14T03:23:30;23.20;;;11.68;;
71423;SDS011;59240;51.370;-0.486;2023-05-14T03:26:00;23.48;;;11.25;;
71423;SDS011;59240;51.370;-0.486;2023-05-14T03:28:27;23.38;;;9.95;;
71423;SDS011;59240;51.370;-0.486;2023-05-14T03:30:53;21.88;;;10.93;;
71423;SDS011;59240;51.370;-0.486;2023-05-14T03:33:20;25.67;;;10.67;;
71423;SDS011;59240;51.370;-0.486;2023-05-14T03:35:48;22.77;;;11.18;;
71423;SDS011;59240;51.370;-0.486;2023-05-14T03:38:14;22.90;;;10.10;;
71423;SDS011;59240;51.370;-0.486;2023-05-14T03:40:41;22.02;;;11.25;;
71423;SDS011;59240;51.370;-0.486;2023-05-14T03:43:07;23.35;;;11.73;;
71423;SDS011;59240;51.370;-0.486;2023-05-14T03:45:34;24.43;;;11.37;;
71423;SDS011;59240;51.370;-0.486;2023-05-14T03:48:00;27.90;;;11.70;;
71423;SDS011;59240;51.370;-0.486;2023-05-14T03:50:27;25.92;;;12.18;;
71423;SDS011;59240;51.370;-0.486;2023-05-14T03:52:54;21.77;;;11.30;;
71423;SDS011;59240;51.370;-0.486;2023-05-14T03:55:20;24.73;;;11.18;;
71423;SDS011;59240;51.370;-0.486;2023-05-14T03:57:47;31.13;;;12.57;;
71423;SDS011;59240;51.370;-0.486;2023-05-14T04:00:14;26.48;;;12.02;;
71423;SDS011;59240;51.370;-0.486;2023-05-14T04:02:41;25.65;;;12.05;;
71423;SDS011;59240;51.370;-0.486;2023-05-14T04:05:08;23.85;;;11.18;;
71423;SDS011;59240;51.370;-0.486;2023-05-14T04:07:35;23.23;;;11.93;;
71423;SDS011;59240;51.370;-0.486;2023-05-14T04:10:02;26.73;;;11.73;;
71423;SDS011;59240;51.370;-0.486;2023-05-14T04:12:30;28.55;;;12.18;;
71423;SDS011;59240;51.370;-0.486;2023-05-14T04:14:57;25.73;;;11.88;;
71423;SDS011;59240;51.370;-0.486;2023-05-14T04:17:23;27.20;;;12.30;;
71423;SDS011;59240;51.370;-0.486;2023-05-14T04:19:50;26.52;;;12.05;;
71423;SDS011;59240;51.370;-0.486;2023-05-14T04:22:17;23.27;;;11.93;;
71423;SDS011;59240;51.370;-0.486;2023-05-14T04:24:44;25.45;;;12.52;;
71423;SDS011;59240;51.370;-0.486;2023-05-14T04:27:11;26.15;;;11.45;;
71423;SDS011;59240;51.370;-0.486;2023-05-14T04:29:39;26.48;;;11.82;;
71423;SDS011;59240;51.370;-0.486;2023-05-14T04:32:06;24.17;;;11.45;;
71423;SDS011;59240;51.370;-0.486;2023-05-14T04:34:33;29.57;;;12.90;;
71423;SDS011;59240;51.370;-0.486;2023-05-14T04:36:59;26.38;;;12.40;;
71423;SDS011;59240;51.370;-0.486;2023-05-14T04:39:26;26.88;;;12.50;;
71423;SDS011;59240;51.370;-0.486;2023-05-14T04:41:53;27.30;;;13.18;;
71423;SDS011;59240;51.370;-0.486;2023-05-14T04:44:19;27.35;;;12.85;;
71423;SDS011;59240;51.370;-0.486;2023-05-14T04:46:46;31.73;;;12.87;;
71423;SDS011;59240;51.370;-0.486;2023-05-14T04:49:12;24.40;;;11.63;;
71423;SDS011;59240;51.370;-0.486;2023-05-14T04:51:39;25.90;;;11.35;;
71423;SDS011;59240;51.370;-0.486;2023-05-14T04:54:05;26.92;;;11.55;;
71423;SDS011;59240;51.370;-0.486;2023-05-14T04:56:32;24.73;;;12.05;;
71423;SDS011;59240;51.370;-0.486;2023-05-14T04:58:59;26.67;;;11.83;;
71423;SDS011;59240;51.370;-0.486;2023-05-14T05:01:25;28.33;;;13.25;;
71423;SDS011;59240;51.370;-0.486;2023-05-14T05:03:52;25.10;;;12.40;;
71423;SDS011;59240;51.370;-0.486;2023-05-14T05:06:19;27.27;;;12.60;;
71423;SDS011;59240;51.370;-0.486;2023-05-14T05:08:45;28.83;;;12.75;;
71423;SDS011;59240;51.370;-0.486;2023-05-14T05:11:16;26.87;;;12.50;;
71423;SDS011;59240;51.370;-0.486;2023-05-14T05:13:43;28.13;;;13.23;;
71423;SDS011;59240;51.370;-0.486;2023-05-14T05:16:09;31.52;;;13.15;;
71423;SDS011;59240;51.370;-0.486;2023-05-14T05:18:36;27.38;;;12.85;;
71423;SDS011;59240;51.370;-0.486;2023-05-14T05:21:04;27.80;;;13.55;;
71423;SDS011;59240;51.370;-0.486;2023-05-14T05:23:30;27.60;;;12.73;;
71423;SDS011;59240;51.370;-0.486;2023-05-14T05:25:57;29.70;;;12.48;;
71423;SDS011;59240;51.370;-0.486;2023-05-14T05:28:23;25.08;;;12.18;;
71423;SDS011;59240;51.370;-0.486;2023-05-14T05:30:50;26.73;;;12.38;;
71423;SDS011;59240;51.370;-0.486;2023-05-14T05:33:17;30.23;;;12.75;;
71423;SDS011;59240;51.370;-0.486;2023-05-14T05:35:44;26.10;;;11.70;;
71423;SDS011;59240;51.370;-0.486;2023-05-14T05:38:10;26.80;;;12.43;;
71423;SDS011;59240;51.370;-0.486;2023-05-14T05:40:37;27.48;;;12.40;;
71423;SDS011;59240;51.370;-0.486;2023-05-14T05:43:04;26.38;;;11.70;;
71423;SDS011;59240;51.370;-0.486;2023-05-14T05:45:30;26.55;;;11.48;;
71423;SDS011;59240;51.370;-0.486;2023-05-14T05:47:57;27.10;;;11.50;;
71423;SDS011;59240;51.370;-0.486;2023-05-14T05:50:24;23.27;;;10.90;;
71423;SDS011;59240;51.370;-0.486;2023-05-14T05:52:51;25.52;;;11.13;;
71423;SDS011;59240;51.370;-0.486;2023-05-14T05:55:18;26.17;;;11.45;;
71423;SDS011;59240;51.370;-0.486;2023-05-14T05:57:45;26.75;;;12.00;;
71423;SDS011;59240;51.370;-0.486;2023-05-14T06:00:11;26.80;;;11.97;;
71423;SDS011;59240;51.370;-0.486;2023-05-14T06:02:39;26.63;;;11.15;;
71423;SDS011;59240;51.370;-0.486;2023-05-14T06:05:07;27.02;;;12.43;;
71423;SDS011;59240;51.370;-0.486;2023-05-14T06:07:35;24.60;;;12.23;;
71423;SDS011;59240;51.370;-0.486;2023-05-14T06:10:02;30.75;;;13.73;;
71423;SDS011;59240;51.370;-0.486;2023-05-14T06:12:29;29.50;;;12.83;;
71423;SDS011;59240;51.370;-0.486;2023-05-14T06:14:56;26.80;;;12.45;;
71423;SDS011;59240;51.370;-0.486;2023-05-14T06:17:23;30.05;;;13.00;;
71423;SDS011;59240;51.370;-0.486;2023-05-14T06:19:50;28.38;;;12.10;;
71423;SDS011;59240;51.370;-0.486;2023-05-14T06:22:17;28.40;;;11.18;;
71423;SDS011;59240;51.370;-0.486;2023-05-14T06:24:44;25.67;;;10.17;;
71423;SDS011;59240;51.370;-0.486;2023-05-14T06:27:11;25.25;;;10.65;;
71423;SDS011;59240;51.370;-0.486;2023-05-14T06:29:37;28.83;;;10.38;;
71423;SDS011;59240;51.370;-0.486;2023-05-14T06:32:04;24.88;;;11.02;;
71423;SDS011;59240;51.370;-0.486;2023-05-14T06:34:31;28.40;;;11.38;;
71423;SDS011;59240;51.370;-0.486;2023-05-14T06:36:58;26.47;;;12.20;;
71423;SDS011;59240;51.370;-0.486;2023-05-14T06:39:25;29.02;;;12.27;;
71423;SDS011;59240;51.370;-0.486;2023-05-14T06:41:51;26.60;;;11.35;;
71423;SDS011;59240;51.370;-0.486;2023-05-14T06:44:18;24.45;;;10.55;;
71423;SDS011;59240;51.370;-0.486;2023-05-14T06:46:45;23.95;;;10.55;;
71423;SDS011;59240;51.370;-0.486;2023-05-14T06:49:11;23.77;;;10.40;;
71423;SDS011;59240;51.370;-0.486;2023-05-14T06:51:38;25.60;;;10.43;;
71423;SDS011;59240;51.370;-0.486;2023-05-14T06:54:05;24.42;;;11.15;;
71423;SDS011;59240;51.370;-0.486;2023-05-14T06:56:33;26.17;;;11.25;;
71423;SDS011;59240;51.370;-0.486;2023-05-14T06:58:59;25.35;;;10.90;;
71423;SDS011;59240;51.370;-0.486;2023-05-14T07:01:26;26.33;;;10.53;;
71423;SDS011;59240;51.370;-0.486;2023-05-14T07:03:52;25.92;;;10.98;;
71423;SDS011;59240;51.370;-0.486;2023-05-14T07:06:19;25.35;;;10.77;;
71423;SDS011;59240;51.370;-0.486;2023-05-14T07:08:46;29.30;;;11.50;;
71423;SDS011;59240;51.370;-0.486;2023-05-14T07:11:13;26.45;;;11.07;;
71423;SDS011;59240;51.370;-0.486;2023-05-14T07:13:40;24.73;;;10.83;;
71423;SDS011;59240;51.370;-0.486;2023-05-14T07:16:07;25.95;;;10.65;;
71423;SDS011;59240;51.370;-0.486;2023-05-14T07:18:40;24.05;;;10.60;;
71423;SDS011;59240;51.370;-0.486;2023-05-14T07:21:07;26.55;;;10.80;;
71423;SDS011;59240;51.370;-0.486;2023-05-14T07:23:34;22.98;;;10.35;;
71423;SDS011;59240;51.370;-0.486;2023-05-14T07:26:06;25.83;;;10.93;;
71423;SDS011;59240;51.370;-0.486;2023-05-14T07:28:33;25.63;;;11.52;;
71423;SDS011;59240;51.370;-0.486;2023-05-14T07:31:00;26.45;;;11.52;;
71423;SDS011;59240;51.370;-0.486;2023-05-14T07:33:27;28.35;;;12.27;;
71423;SDS011;59240;51.370;-0.486;2023-05-14T07:35:54;27.23;;;10.98;;
71423;SDS011;59240;51.370;-0.486;2023-05-14T07:38:20;24.33;;;11.83;;
71423;SDS011;59240;51.370;-0.486;2023-05-14T07:40:47;25.42;;;11.18;;
71423;SDS011;59240;51.370;-0.486;2023-05-14T07:43:13;28.23;;;11.73;;
71423;SDS011;59240;51.370;-0.486;2023-05-14T07:45:40;27.70;;;11.55;;
71423;SDS011;59240;51.370;-0.486;2023-05-14T07:48:06;26.98;;;12.18;;
71423;SDS011;59240;51.370;-0.486;2023-05-14T07:50:33;29.43;;;12.60;;
71423;SDS011;59240;51.370;-0.486;2023-05-14T07:53:00;24.27;;;11.07;;
71423;SDS011;59240;51.370;-0.486;2023-05-14T07:55:27;27.92;;;12.43;;
71423;SDS011;59240;51.370;-0.486;2023-05-14T07:57:53;29.50;;;12.98;;
71423;SDS011;59240;51.370;-0.486;2023-05-14T08:00:20;28.92;;;12.48;;
71423;SDS011;59240;51.370;-0.486;2023-05-14T08:02:47;26.53;;;11.47;;
71423;SDS011;59240;51.370;-0.486;2023-05-14T08:05:15;28.20;;;11.98;;
71423;SDS011;59240;51.370;-0.486;2023-05-14T08:07:42;27.40;;;11.75;;
71423;SDS011;59240;51.370;-0.486;2023-05-14T08:10:09;25.90;;;11.43;;
71423;SDS011;59240;51.370;-0.486;2023-05-14T08:12:36;24.83;;;11.57;;
71423;SDS011;59240;51.370;-0.486;2023-05-14T08:15:03;26.53;;;11.77;;
71423;SDS011;59240;51.370;-0.486;2023-05-14T08:17:30;27.75;;;12.82;;
71423;SDS011;59240;51.370;-0.486;2023-05-14T08:19:57;31.15;;;14.10;;
71423;SDS011;59240;51.370;-0.486;2023-05-14T08:22:23;28.85;;;12.70;;
71423;SDS011;59240;51.370;-0.486;2023-05-14T08:24:51;28.67;;;12.52;;
71423;SDS011;59240;51.370;-0.486;2023-05-14T08:27:18;29.30;;;14.83;;
71423;SDS011;59240;51.370;-0.486;2023-05-14T08:29:44;32.60;;;14.32;;
71423;SDS011;59240;51.370;-0.486;2023-05-14T08:32:12;29.13;;;12.85;;
71423;SDS011;59240;51.370;-0.486;2023-05-14T08:34:48;29.20;;;13.02;;
71423;SDS011;59240;51.370;-0.486;2023-05-14T08:37:18;29.38;;;13.43;;
71423;SDS011;59240;51.370;-0.486;2023-05-14T08:39:45;32.33;;;14.57;;
71423;SDS011;59240;51.370;-0.486;2023-05-14T08:42:12;34.40;;;15.43;;
71423;SDS011;59240;51.370;-0.486;2023-05-14T08:44:44;31.35;;;13.85;;
71423;SDS011;59240;51.370;-0.486;2023-05-14T08:47:14;31.80;;;13.38;;
71423;SDS011;59240;51.370;-0.486;2023-05-14T08:49:45;27.20;;;12.52;;
71423;SDS011;59240;51.370;-0.486;2023-05-14T08:52:15;29.80;;;13.07;;
71423;SDS011;59240;51.370;-0.486;2023-05-14T08:54:43;29.60;;;13.77;;
71423;SDS011;59240;51.370;-0.486;2023-05-14T08:57:11;27.65;;;12.43;;
71423;SDS011;59240;51.370;-0.486;2023-05-14T08:59:39;28.40;;;12.48;;
71423;SDS011;59240;51.370;-0.486;2023-05-14T09:02:06;29.42;;;13.20;;
71423;SDS011;59240;51.370;-0.486;2023-05-14T09:04:37;28.30;;;11.87;;
71423;SDS011;59240;51.370;-0.486;2023-05-14T09:07:03;29.48;;;13.68;;
71423;SDS011;59240;51.370;-0.486;2023-05-14T09:09:32;32.45;;;14.02;;
71423;SDS011;59240;51.370;-0.486;2023-05-14T09:11:59;28.45;;;13.20;;
71423;SDS011;59240;51.370;-0.486;2023-05-14T09:14:26;31.63;;;13.93;;
71423;SDS011;59240;51.370;-0.486;2023-05-14T09:16:53;28.93;;;12.80;;
71423;SDS011;59240;51.370;-0.486;2023-05-14T09:19:20;27.40;;;13.50;;
71423;SDS011;59240;51.370;-0.486;2023-05-14T09:21:48;31.17;;;13.90;;
71423;SDS011;59240;51.370;-0.486;2023-05-14T09:24:25;30.00;;;12.52;;
71423;SDS011;59240;51.370;-0.486;2023-05-14T09:26:53;29.88;;;12.95;;
71423;SDS011;59240;51.370;-0.486;2023-05-14T09:29:24;27.27;;;13.30;;
71423;SDS011;59240;51.370;-0.486;2023-05-14T09:31:51;28.20;;;13.00;;
71423;SDS011;59240;51.370;-0.486;2023-05-14T09:39:22;28.88;;;14.02;;
71423;SDS011;59240;51.370;-0.486;2023-05-14T09:41:49;29.07;;;12.53;;
71423;SDS011;59240;51.370;-0.486;2023-05-14T09:44:20;27.25;;;13.05;;
71423;SDS011;59240;51.370;-0.486;2023-05-14T09:46:47;24.92;;;13.25;;
71423;SDS011;59240;51.370;-0.486;2023-05-14T09:49:15;28.70;;;12.88;;
71423;SDS011;59240;51.370;-0.486;2023-05-14T09:51:42;23.77;;;12.48;;
71423;SDS011;59240;51.370;-0.486;2023-05-14T09:54:09;24.57;;;11.97;;
71423;SDS011;59240;51.370;-0.486;2023-05-14T09:56:36;23.70;;;12.10;;
71423;SDS011;59240;51.370;-0.486;2023-05-14T09:59:04;25.65;;;11.40;;
71423;SDS011;59240;51.370;-0.486;2023-05-14T10:01:31;26.15;;;12.88;;
71423;SDS011;59240;51.370;-0.486;2023-05-14T10:03:58;23.10;;;12.05;;
71423;SDS011;59240;51.370;-0.486;2023-05-14T10:06:31;23.90;;;12.70;;
71423;SDS011;59240;51.370;-0.486;2023-05-14T10:09:05;24.45;;;12.98;;
71423;SDS011;59240;51.370;-0.486;2023-05-14T10:11:37;24.15;;;11.88;;
71423;SDS011;59240;51.370;-0.486;2023-05-14T10:14:17;24.23;;;12.20;;
71423;SDS011;59240;51.370;-0.486;2023-05-14T10:16:50;22.52;;;12.48;;
71423;SDS011;59240;51.370;-0.486;2023-05-14T10:19:19;23.03;;;11.60;;
71423;SDS011;59240;51.370;-0.486;2023-05-14T10:22:10;21.02;;;11.55;;
71423;SDS011;59240;51.370;-0.486;2023-05-14T10:24:37;20.83;;;11.73;;
71423;SDS011;59240;51.370;-0.486;2023-05-14T10:27:04;20.65;;;11.35;;
71423;SDS011;59240;51.370;-0.486;2023-05-14T10:29:34;19.25;;;10.98;;
71423;SDS011;59240;51.370;-0.486;2023-05-14T10:32:09;19.07;;;11.27;;
71423;SDS011;59240;51.370;-0.486;2023-05-14T10:37:10;20.02;;;10.73;;
71423;SDS011;59240;51.370;-0.486;2023-05-14T10:42:07;21.40;;;11.40;;
71423;SDS011;59240;51.370;-0.486;2023-05-14T10:44:35;18.93;;;11.13;;
71423;SDS011;59240;51.370;-0.486;2023-05-14T10:47:14;19.35;;;10.95;;
71423;SDS011;59240;51.370;-0.486;2023-05-14T10:49:45;20.92;;;11.60;;
71423;SDS011;59240;51.370;-0.486;2023-05-14T10:52:16;18.48;;;10.73;;
71423;SDS011;59240;51.370;-0.486;2023-05-14T10:54:53;19.15;;;10.40;;
71423;SDS011;59240;51.370;-0.486;2023-05-14T10:57:23;21.00;;;11.23;;
71423;SDS011;59240;51.370;-0.486;2023-05-14T10:59:52;18.58;;;11.27;;
71423;SDS011;59240;51.370;-0.486;2023-05-14T11:07:32;18.60;;;11.43;;
71423;SDS011;59240;51.370;-0.486;2023-05-14T11:10:04;19.33;;;11.10;;
71423;SDS011;59240;51.370;-0.486;2023-05-14T11:12:36;19.70;;;12.35;;
71423;SDS011;59240;51.370;-0.486;2023-05-14T11:15:05;19.83;;;11.82;;
71423;SDS011;59240;51.370;-0.486;2023-05-14T11:17:37;17.25;;;10.85;;
71423;SDS011;59240;51.370;-0.486;2023-05-14T11:20:06;18.05;;;10.48;;
71423;SDS011;59240;51.370;-0.486;2023-05-14T11:22:34;18.33;;;11.80;;
71423;SDS011;59240;51.370;-0.486;2023-05-14T11:25:01;17.65;;;11.13;;
71423;SDS011;59240;51.370;-0.486;2023-05-14T11:27:29;19.35;;;11.40;;
71423;SDS011;59240;51.370;-0.486;2023-05-14T11:29:57;17.55;;;10.40;;
71423;SDS011;59240;51.370;-0.486;2023-05-14T11:32:26;16.83;;;10.00;;
71423;SDS011;59240;51.370;-0.486;2023-05-14T11:34:53;16.77;;;10.57;;
71423;SDS011;59240;51.370;-0.486;2023-05-14T11:37:19;17.98;;;10.70;;
71423;SDS011;59240;51.370;-0.486;2023-05-14T11:39:46;17.88;;;10.10;;
71423;SDS011;59240;51.370;-0.486;2023-05-14T11:42:14;14.07;;;7.80;;
71423;SDS011;59240;51.370;-0.486;2023-05-14T11:44:42;15.02;;;9.50;;
71423;SDS011;59240;51.370;-0.486;2023-05-14T11:47:11;16.23;;;9.83;;
71423;SDS011;59240;51.370;-0.486;2023-05-14T11:49:37;14.40;;;8.93;;
71423;SDS011;59240;51.370;-0.486;2023-05-14T11:52:05;16.92;;;9.45;;
71423;SDS011;59240;51.370;-0.486;2023-05-14T11:54:33;12.68;;;8.57;;
71423;SDS011;59240;51.370;-0.486;2023-05-14T11:57:01;15.63;;;9.10;;
71423;SDS011;59240;51.370;-0.486;2023-05-14T11:59:32;14.37;;;9.20;;
71423;SDS011;59240;51.370;-0.486;2023-05-14T12:01:59;14.68;;;9.02;;
71423;SDS011;59240;51.370;-0.486;2023-05-14T12:04:27;14.13;;;7.88;;
71423;SDS011;59240;51.370;-0.486;2023-05-14T12:06:56;13.52;;;8.00;;
71423;SDS011;59240;51.370;-0.486;2023-05-14T12:09:23;14.00;;;8.10;;
71423;SDS011;59240;51.370;-0.486;2023-05-14T12:11:51;13.47;;;7.80;;
71423;SDS011;59240;51.370;-0.486;2023-05-14T12:14:18;12.32;;;7.20;;
71423;SDS011;59240;51.370;-0.486;2023-05-14T12:16:47;25.40;;;19.05;;
71423;SDS011;59240;51.370;-0.486;2023-05-14T12:19:15;15.50;;;8.63;;
71423;SDS011;59240;51.370;-0.486;2023-05-14T12:21:43;13.55;;;8.45;;
71423;SDS011;59240;51.370;-0.486;2023-05-14T12:24:12;32.77;;;21.63;;
71423;SDS011;59240;51.370;-0.486;2023-05-14T12:26:45;18.90;;;10.75;;
71423;SDS011;59240;51.370;-0.486;2023-05-14T12:29:13;18.23;;;11.93;;
71423;SDS011;59240;51.370;-0.486;2023-05-14T12:31:44;13.88;;;8.57;;
71423;SDS011;59240;51.370;-0.486;2023-05-14T12:34:12;14.50;;;8.48;;
71423;SDS011;59240;51.370;-0.486;2023-05-14T12:36:39;13.03;;;8.30;;
71423;SDS011;59240;51.370;-0.486;2023-05-14T12:39:06;13.63;;;7.55;;
71423;SDS011;59240;51.370;-0.486;2023-05-14T12:41:33;13.52;;;7.28;;
71423;SDS011;59240;51.370;-0.486;2023-05-14T12:44:01;12.93;;;7.93;;
71423;SDS011;59240;51.370;-0.486;2023-05-14T12:46:29;12.52;;;7.80;;
71423;SDS011;59240;51.370;-0.486;2023-05-14T12:48:56;12.93;;;7.50;;
71423;SDS011;59240;51.370;-0.486;2023-05-14T12:51:23;11.90;;;7.57;;
71423;SDS011;59240;51.370;-0.486;2023-05-14T12:53:50;12.63;;;6.88;;
71423;SDS011;59240;51.370;-0.486;2023-05-14T12:56:19;13.27;;;7.60;;
71423;SDS011;59240;51.370;-0.486;2023-05-14T12:58:47;11.65;;;7.28;;
71423;SDS011;59240;51.370;-0.486;2023-05-14T13:01:13;11.23;;;6.43;;
71423;SDS011;59240;51.370;-0.486;2023-05-14T13:03:40;11.90;;;6.78;;
71423;SDS011;59240;51.370;-0.486;2023-05-14T13:06:06;11.65;;;6.72;;
71423;SDS011;59240;51.370;-0.486;2023-05-14T13:08:33;12.32;;;7.20;;
71423;SDS011;59240;51.370;-0.486;2023-05-14T13:11:00;12.75;;;7.10;;
71423;SDS011;59240;51.370;-0.486;2023-05-14T13:13:27;11.50;;;6.40;;
71423;SDS011;59240;51.370;-0.486;2023-05-14T13:15:53;11.35;;;6.70;;
71423;SDS011;59240;51.370;-0.486;2023-05-14T13:18:20;12.55;;;6.57;;
71423;SDS011;59240;51.370;-0.486;2023-05-14T13:20:47;12.32;;;6.80;;
71423;SDS011;59240;51.370;-0.486;2023-05-14T13:23:13;11.93;;;6.47;;
71423;SDS011;59240;51.370;-0.486;2023-05-14T13:25:40;9.97;;;5.37;;
71423;SDS011;59240;51.370;-0.486;2023-05-14T13:28:07;11.68;;;5.97;;
71423;SDS011;59240;51.370;-0.486;2023-05-14T13:30:33;9.90;;;5.93;;
71423;SDS011;59240;51.370;-0.486;2023-05-14T13:33:00;11.95;;;6.32;;
71423;SDS011;59240;51.370;-0.486;2023-05-14T13:35:27;11.65;;;6.07;;
71423;SDS011;59240;51.370;-0.486;2023-05-14T13:37:53;11.23;;;6.90;;
71423;SDS011;59240;51.370;-0.486;2023-05-14T13:40:20;11.95;;;6.45;;
71423;SDS011;59240;51.370;-0.486;2023-05-14T13:42:47;9.63;;;5.47;;
71423;SDS011;59240;51.370;-0.486;2023-05-14T13:45:13;10.30;;;5.70;;
71423;SDS011;59240;51.370;-0.486;2023-05-14T13:47:40;9.88;;;5.38;;
71423;SDS011;59240;51.370;-0.486;2023-05-14T13:50:06;11.57;;;6.00;;
71423;SDS011;59240;51.370;-0.486;2023-05-14T13:52:33;9.02;;;4.93;;
71423;SDS011;59240;51.370;-0.486;2023-05-14T13:55:00;10.85;;;5.25;;
71423;SDS011;59240;51.370;-0.486;2023-05-14T13:57:27;9.70;;;5.63;;
71423;SDS011;59240;51.370;-0.486;2023-05-14T13:59:53;9.73;;;4.82;;
71423;SDS011;59240;51.370;-0.486;2023-05-14T14:02:20;10.07;;;4.40;;
71423;SDS011;59240;51.370;-0.486;2023-05-14T14:04:46;7.97;;;3.92;;
71423;SDS011;59240;51.370;-0.486;2023-05-14T14:07:14;9.30;;;3.80;;
71423;SDS011;59240;51.370;-0.486;2023-05-14T14:09:41;9.60;;;5.40;;
71423;SDS011;59240;51.370;-0.486;2023-05-14T14:12:07;9.45;;;4.80;;
71423;SDS011;59240;51.370;-0.486;2023-05-14T14:14:34;8.37;;;4.33;;
71423;SDS011;59240;51.370;-0.486;2023-05-14T14:17:01;9.00;;;4.55;;
71423;SDS011;59240;51.370;-0.486;2023-05-14T14:19:28;10.63;;;5.03;;
71423;SDS011;59240;51.370;-0.486;2023-05-14T14:21:54;10.82;;;5.38;;
71423;SDS011;59240;51.370;-0.486;2023-05-14T14:24:21;9.13;;;4.80;;
71423;SDS011;59240;51.370;-0.486;2023-05-14T14:26:47;8.70;;;4.40;;
71423;SDS011;59240;51.370;-0.486;2023-05-14T14:29:14;10.52;;;4.90;;
71423;SDS011;59240;51.370;-0.486;2023-05-14T14:31:40;9.90;;;4.95;;
71423;SDS011;59240;51.370;-0.486;2023-05-14T14:34:08;10.25;;;4.88;;
71423;SDS011;59240;51.370;-0.486;2023-05-14T14:36:35;10.45;;;5.35;;